createdAt,value
2022-12-27T00:01:26.875Z,3.37
2022-12-27T00:03:53.996Z,3.30
2022-12-27T00:06:22.570Z,3.31
2022-12-27T00:08:49.113Z,3.31
2022-12-27T00:11:17.723Z,3.25
2022-12-27T00:13:44.260Z,3.28
2022-12-27T00:16:13.119Z,3.20
2022-12-27T00:18:40.253Z,3.15
2022-12-27T00:21:07.732Z,3.21
2022-12-27T00:23:37.029Z,3.10
2022-12-27T00:26:11.001Z,3.11
2022-12-27T00:28:37.532Z,3.01
2022-12-27T00:31:05.426Z,3.08
2022-12-27T00:33:34.177Z,3.09
2022-12-27T00:36:02.225Z,3.10
2022-12-27T00:38:28.881Z,3.03
2022-12-27T00:40:55.298Z,3.04
2022-12-27T00:43:21.716Z,3.04
2022-12-27T00:45:48.332Z,3.04
2022-12-27T00:48:14.873Z,3.00
2022-12-27T00:50:42.581Z,3.09
2022-12-27T00:53:09.906Z,3.09
2022-12-27T00:55:36.627Z,3.09
2022-12-27T00:58:03.366Z,3.10
2022-12-27T01:00:30.355Z,3.12
2022-12-27T01:02:56.940Z,3.11
2022-12-27T01:05:23.998Z,3.11
2022-12-27T01:07:50.379Z,3.11
2022-12-27T01:10:16.787Z,3.10
2022-12-27T01:12:43.172Z,3.04
2022-12-27T01:15:10.310Z,3.07
2022-12-27T01:17:36.671Z,3.03
2022-12-27T01:20:03.490Z,3.12
2022-12-27T01:22:29.898Z,3.10
2022-12-27T01:24:56.410Z,3.15
2022-12-27T01:27:22.934Z,3.11
2022-12-27T01:29:49.329Z,3.14
2022-12-27T01:32:15.773Z,3.09
2022-12-27T01:34:42.254Z,3.07
2022-12-27T01:37:08.616Z,3.11
2022-12-27T01:39:35.061Z,3.14
2022-12-27T01:42:19.994Z,3.12
2022-12-27T01:44:53.662Z,3.17
2022-12-27T01:47:41.381Z,3.11
2022-12-27T01:50:22.990Z,3.19
2022-12-27T01:53:00.224Z,3.19
2022-12-27T01:55:31.442Z,3.27
2022-12-27T01:58:02.922Z,3.20
2022-12-27T02:00:29.353Z,3.17
2022-12-27T02:02:56.077Z,3.16
2022-12-27T02:05:24.094Z,3.28
2022-12-27T02:07:59.366Z,3.26
2022-12-27T02:10:25.799Z,3.20
2022-12-27T02:12:52.556Z,3.31
2022-12-27T02:15:18.984Z,3.26
2022-12-27T02:17:45.402Z,3.22
2022-12-27T02:20:21.411Z,3.17
2022-12-27T02:23:42.119Z,3.26
2022-12-27T02:26:20.432Z,3.14
2022-12-27T02:29:08.208Z,3.18
2022-12-27T02:32:13.000Z,3.22
2022-12-27T02:35:09.939Z,3.23
2022-12-27T02:37:41.784Z,3.23
2022-12-27T02:40:28.656Z,3.25
2022-12-27T02:43:14.116Z,3.27
2022-12-27T02:46:05.338Z,3.25
2022-12-27T02:48:50.377Z,3.28
2022-12-27T02:51:40.538Z,3.24
2022-12-27T02:54:43.585Z,3.26
2022-12-27T02:57:28.049Z,3.25
2022-12-27T03:00:26.988Z,3.29
2022-12-27T03:03:20.813Z,3.27
2022-12-27T03:06:21.190Z,3.27
2022-12-27T03:09:06.252Z,3.29
2022-12-27T03:12:05.383Z,3.29
2022-12-27T03:14:54.944Z,3.31
2022-12-27T03:17:37.581Z,3.29
2022-12-27T03:20:25.785Z,3.33
2022-12-27T03:23:13.426Z,3.34
2022-12-27T03:25:40.418Z,3.26
2022-12-27T03:28:28.653Z,3.26
2022-12-27T03:31:19.357Z,3.28
2022-12-27T03:33:47.770Z,3.27
2022-12-27T03:36:39.410Z,3.27
2022-12-27T03:39:12.717Z,3.24
2022-12-27T03:42:01.468Z,3.30
2022-12-27T03:44:27.965Z,3.24
2022-12-27T03:47:17.500Z,3.21
2022-12-27T03:50:07.915Z,3.26
2022-12-27T03:52:45.127Z,3.29
2022-12-27T03:55:11.853Z,3.29
2022-12-27T03:57:38.905Z,3.33
2022-12-27T04:00:06.216Z,3.32
2022-12-27T04:02:32.869Z,3.34
2022-12-27T04:04:59.414Z,3.36
2022-12-27T04:07:25.792Z,3.35
2022-12-27T04:10:10.835Z,3.33
2022-12-27T04:12:55.475Z,3.34
2022-12-27T04:15:40.537Z,3.30
2022-12-27T04:18:25.571Z,3.37
2022-12-27T04:21:10.496Z,3.34
2022-12-27T04:23:55.651Z,3.31
2022-12-27T04:26:40.645Z,3.31
2022-12-27T04:29:26.711Z,3.35
2022-12-27T04:32:11.553Z,3.32
2022-12-27T04:34:43.896Z,3.37
2022-12-27T04:37:17.148Z,3.39
2022-12-27T04:40:04.352Z,3.36
2022-12-27T04:42:49.361Z,3.39
2022-12-27T04:45:34.007Z,3.35
2022-12-27T04:48:19.274Z,3.41
2022-12-27T04:51:03.972Z,3.36
2022-12-27T04:53:49.005Z,3.48
2022-12-27T04:56:15.371Z,3.43
2022-12-27T04:59:01.728Z,3.48
2022-12-27T05:01:47.426Z,3.53
2022-12-27T05:04:13.865Z,3.60
2022-12-27T05:06:40.310Z,3.60
2022-12-27T05:09:25.357Z,3.58
2022-12-27T05:12:10.105Z,3.48
2022-12-27T05:14:36.518Z,3.49
2022-12-27T05:17:02.951Z,3.46
2022-12-27T05:19:29.359Z,3.49
2022-12-27T05:22:14.220Z,3.48
2022-12-27T05:24:58.920Z,3.48
2022-12-27T05:27:25.361Z,3.49
2022-12-27T05:29:51.817Z,3.54
2022-12-27T05:32:18.194Z,3.66
2022-12-27T05:34:44.838Z,3.75
2022-12-27T05:37:11.204Z,3.89
2022-12-27T05:39:37.675Z,3.90
2022-12-27T05:42:04.469Z,3.95
2022-12-27T05:44:30.872Z,3.96
2022-12-27T05:46:57.292Z,4.05
2022-12-27T05:49:23.682Z,3.98
2022-12-27T05:51:50.077Z,4.03
2022-12-27T05:54:16.545Z,4.10
2022-12-27T05:56:43.082Z,4.10
2022-12-27T05:59:09.488Z,4.10
2022-12-27T06:01:36.066Z,4.08
2022-12-27T06:04:02.690Z,4.15
2022-12-27T06:06:29.176Z,4.04
2022-12-27T06:08:55.596Z,4.05
2022-12-27T06:11:21.989Z,3.96
2022-12-27T06:13:50.930Z,3.98
2022-12-27T06:16:18.072Z,4.03
2022-12-27T06:18:44.517Z,4.07
2022-12-27T06:21:13.610Z,4.18
2022-12-27T06:23:41.157Z,4.17
2022-12-27T06:26:09.401Z,4.19
2022-12-27T06:28:35.988Z,4.15
2022-12-27T06:31:03.076Z,4.16
2022-12-27T06:33:29.785Z,4.17
2022-12-27T06:35:56.526Z,4.03
2022-12-27T06:38:23.488Z,4.05
2022-12-27T06:40:49.861Z,4.01
2022-12-27T06:43:16.635Z,3.97
2022-12-27T06:45:43.130Z,4.04
2022-12-27T06:48:09.561Z,3.93
2022-12-27T06:50:36.779Z,4.05
2022-12-27T06:53:03.170Z,4.01
2022-12-27T06:55:29.567Z,3.97
2022-12-27T06:57:56.104Z,3.91
2022-12-27T07:00:22.586Z,4.04
2022-12-27T07:02:49.069Z,4.02
2022-12-27T07:05:15.865Z,4.11
2022-12-27T07:07:42.261Z,4.09
2022-12-27T07:10:09.104Z,4.06
2022-12-27T07:12:36.898Z,4.12
2022-12-27T07:15:05.312Z,4.04
2022-12-27T07:17:31.688Z,3.90
2022-12-27T07:19:58.062Z,3.98
2022-12-27T07:22:24.442Z,3.98
2022-12-27T07:24:50.843Z,3.96
2022-12-27T07:27:17.247Z,3.85
2022-12-27T07:29:45.676Z,3.81
2022-12-27T07:32:12.302Z,3.75
2022-12-27T07:34:38.704Z,3.70
2022-12-27T07:37:05.263Z,3.65
2022-12-27T07:39:31.654Z,3.75
2022-12-27T07:42:01.878Z,3.73
2022-12-27T07:44:31.114Z,3.83
2022-12-27T07:46:57.482Z,3.90
2022-12-27T07:49:23.846Z,3.97
2022-12-27T07:51:50.205Z,4.04
2022-12-27T07:54:16.586Z,3.97
2022-12-27T07:56:42.988Z,3.96
2022-12-27T07:59:12.075Z,3.87
2022-12-27T08:01:57.243Z,3.92
2022-12-27T08:04:23.766Z,3.84
2022-12-27T08:06:50.279Z,3.81
2022-12-27T08:09:25.692Z,3.82
2022-12-27T08:11:52.099Z,3.78
2022-12-27T08:14:18.490Z,3.73
2022-12-27T08:16:44.943Z,3.76
2022-12-27T08:19:11.386Z,3.79
2022-12-27T08:21:38.987Z,3.81
2022-12-27T08:24:05.573Z,3.77
2022-12-27T08:26:31.963Z,3.77
2022-12-27T08:28:58.348Z,3.77
2022-12-27T08:31:24.783Z,3.82
2022-12-27T08:33:56.577Z,3.91
2022-12-27T08:39:12.010Z,3.90
2022-12-27T08:41:38.872Z,3.98
2022-12-27T08:44:05.437Z,4.07
2022-12-27T08:46:31.944Z,4.14
2022-12-27T08:48:58.339Z,4.16
2022-12-27T08:51:34.398Z,4.25
2022-12-27T08:54:05.262Z,4.25
2022-12-27T08:56:31.711Z,4.35
2022-12-27T08:58:58.097Z,4.35
2022-12-27T09:01:25.730Z,4.33
2022-12-27T09:03:52.280Z,4.35
2022-12-27T09:06:21.025Z,4.40
2022-12-27T09:08:48.873Z,4.46
2022-12-27T09:11:18.939Z,4.44
2022-12-27T09:13:45.524Z,4.50
2022-12-27T09:16:14.923Z,4.63
2022-12-27T09:18:42.157Z,4.73
2022-12-27T09:21:10.595Z,4.93
2022-12-27T09:23:37.903Z,4.75
2022-12-27T09:26:13.425Z,4.92
2022-12-27T09:28:40.271Z,4.80
2022-12-27T09:31:08.906Z,4.74
2022-12-27T09:33:35.481Z,4.71
2022-12-27T09:36:19.556Z,4.70
2022-12-27T09:38:47.034Z,4.88
2022-12-27T09:44:46.771Z,5.07
2022-12-27T09:47:18.980Z,5.16
2022-12-27T09:49:46.108Z,5.25
2022-12-27T09:52:17.042Z,5.34
2022-12-27T09:54:44.054Z,5.37
2022-12-27T09:57:24.318Z,5.37
2022-12-27T09:59:56.869Z,5.51
2022-12-27T10:02:25.513Z,5.36
2022-12-27T10:05:19.004Z,5.46
2022-12-27T10:07:53.635Z,5.54
2022-12-27T10:10:31.970Z,5.52
2022-12-27T10:13:02.109Z,5.42
2022-12-27T10:15:43.806Z,5.57
2022-12-27T10:18:47.645Z,5.57
2022-12-27T10:21:23.716Z,5.56
2022-12-27T10:24:00.636Z,5.45
2022-12-27T10:26:27.227Z,5.53
2022-12-27T10:29:11.686Z,5.48
2022-12-27T10:31:42.313Z,5.50
2022-12-27T10:34:10.948Z,5.40
2022-12-27T10:36:37.540Z,5.63
2022-12-27T10:39:09.683Z,5.61
2022-12-27T10:41:35.916Z,5.64
2022-12-27T10:44:02.332Z,5.71
2022-12-27T10:46:33.513Z,5.75
2022-12-27T10:49:21.824Z,6.00
2022-12-27T10:51:50.613Z,5.85
2022-12-27T10:54:22.080Z,5.85
2022-12-27T10:56:48.527Z,5.95
2022-12-27T10:59:26.961Z,6.05
2022-12-27T11:02:02.900Z,6.04
2022-12-27T11:04:30.956Z,5.92
2022-12-27T11:06:59.509Z,5.79
2022-12-27T11:09:27.712Z,5.82
2022-12-27T11:12:19.259Z,5.75
2022-12-27T11:14:57.091Z,5.65
2022-12-27T11:17:45.188Z,5.72
2022-12-27T11:20:12.153Z,5.72
2022-12-27T11:22:47.178Z,5.63
2022-12-27T11:25:14.485Z,5.70
2022-12-27T11:27:45.406Z,5.76
2022-12-27T11:30:31.376Z,5.81
2022-12-27T11:33:02.666Z,5.82
2022-12-27T11:35:29.268Z,5.87
2022-12-27T11:37:55.795Z,5.91
2022-12-27T11:40:27.190Z,5.95
2022-12-27T11:43:02.834Z,5.88
2022-12-27T11:45:35.847Z,5.92
2022-12-27T11:48:14.985Z,6.01
2022-12-27T11:50:53.934Z,6.13
2022-12-27T11:53:43.902Z,6.31
2022-12-27T11:56:26.603Z,6.33
2022-12-27T11:59:11.301Z,6.33
2022-12-27T12:01:49.804Z,6.46
2022-12-27T12:04:43.142Z,6.64
2022-12-27T12:07:37.050Z,6.51
2022-12-27T12:10:28.104Z,6.54
2022-12-27T12:13:06.497Z,6.51
2022-12-27T12:15:52.753Z,6.58
2022-12-27T12:18:31.025Z,6.88
2022-12-27T12:21:26.432Z,6.77
2022-12-27T12:24:26.348Z,6.82
2022-12-27T12:27:26.150Z,6.72
2022-12-27T12:30:26.859Z,6.76
2022-12-27T12:33:06.199Z,6.60
2022-12-27T12:35:48.894Z,6.72
2022-12-27T12:38:23.561Z,6.82
2022-12-27T12:41:38.018Z,6.86
2022-12-27T12:44:13.737Z,6.90
2022-12-27T12:47:10.040Z,7.08
2022-12-27T12:49:45.282Z,7.17
2022-12-27T12:52:11.562Z,7.31
2022-12-27T12:54:47.182Z,7.26
2022-12-27T12:57:27.452Z,7.26
2022-12-27T13:00:21.336Z,6.92
2022-12-27T13:03:10.688Z,7.00
2022-12-27T13:05:47.911Z,6.88
2022-12-27T13:08:31.383Z,6.98
2022-12-27T13:11:06.976Z,6.77
2022-12-27T13:14:00.713Z,6.73
2022-12-27T13:16:52.053Z,6.72
2022-12-27T13:19:36.709Z,6.74
2022-12-27T13:22:16.680Z,6.77
2022-12-27T13:25:06.242Z,6.76
2022-12-27T13:27:45.710Z,6.88
2022-12-27T13:30:25.065Z,6.83
2022-12-27T13:33:18.811Z,6.93
2022-12-27T13:36:07.019Z,7.03
2022-12-27T13:38:55.261Z,6.98
2022-12-27T13:41:46.714Z,6.88
2022-12-27T13:44:22.365Z,6.68
2022-12-27T13:47:14.965Z,6.66
2022-12-27T13:49:50.580Z,6.68
2022-12-27T13:52:47.349Z,6.72
2022-12-27T13:55:22.797Z,6.69
2022-12-27T13:58:06.105Z,6.75
2022-12-27T14:00:43.413Z,6.65
2022-12-27T14:03:40.218Z,6.59
2022-12-27T14:06:43.718Z,6.74
2022-12-27T14:09:48.890Z,6.72
2022-12-27T14:12:42.893Z,6.82
2022-12-27T14:15:15.741Z,6.75
2022-12-27T14:17:48.099Z,6.82
2022-12-27T14:20:52.121Z,6.79
2022-12-27T14:23:40.471Z,6.84
2022-12-27T14:26:28.846Z,6.91
2022-12-27T14:29:20.002Z,6.86
2022-12-27T14:32:24.907Z,6.75
2022-12-27T14:35:16.025Z,6.84
2022-12-27T14:38:36.851Z,6.73
2022-12-27T14:41:18.391Z,6.67
2022-12-27T14:44:16.511Z,6.56
2022-12-27T14:46:59.566Z,6.65
2022-12-27T14:49:41.347Z,6.60
2022-12-27T14:52:19.580Z,6.51
2022-12-27T14:55:04.206Z,6.51
2022-12-27T14:57:55.377Z,6.54
2022-12-27T15:00:25.995Z,6.50
2022-12-27T15:03:14.402Z,6.37
2022-12-27T15:05:49.096Z,6.38
2022-12-27T15:08:36.997Z,6.37
2022-12-27T15:11:40.987Z,6.35
2022-12-27T15:14:36.489Z,6.29
2022-12-27T15:17:31.555Z,6.30
2022-12-27T15:20:35.391Z,6.33
2022-12-27T15:23:17.844Z,6.37
2022-12-27T15:25:59.429Z,6.21
2022-12-27T15:28:51.761Z,6.30
2022-12-27T15:31:40.130Z,6.31
2022-12-27T15:34:28.702Z,6.33
2022-12-27T15:36:55.207Z,6.32
2022-12-27T15:39:45.353Z,6.36
2022-12-27T15:42:30.397Z,6.26
2022-12-27T15:45:19.789Z,6.34
2022-12-27T15:47:57.302Z,6.33
2022-12-27T15:51:14.887Z,6.41
2022-12-27T15:53:55.316Z,6.35
2022-12-27T15:56:44.057Z,6.30
2022-12-27T15:59:36.624Z,6.35
2022-12-27T16:02:22.345Z,6.31
2022-12-27T16:04:52.941Z,6.36
2022-12-27T16:07:36.852Z,6.28
2022-12-27T16:10:31.572Z,6.30
2022-12-27T16:13:04.079Z,6.36
2022-12-27T16:15:53.566Z,6.36
2022-12-27T16:18:22.898Z,6.46
2022-12-27T16:20:59.584Z,6.49
2022-12-27T16:24:02.890Z,6.54
2022-12-27T16:26:31.101Z,6.51
2022-12-27T16:29:13.981Z,6.48
2022-12-27T16:31:48.980Z,6.63
2022-12-27T16:34:31.359Z,6.65
2022-12-27T16:36:59.364Z,6.60
2022-12-27T16:39:57.137Z,6.66
2022-12-27T16:42:28.438Z,6.61
2022-12-27T16:45:05.465Z,6.55
2022-12-27T16:47:34.945Z,6.72
2022-12-27T16:50:01.218Z,6.68
2022-12-27T16:53:00.573Z,6.71
2022-12-27T16:55:30.138Z,6.71
2022-12-27T16:58:28.770Z,6.64
2022-12-27T17:00:56.905Z,6.64
2022-12-27T17:03:29.893Z,6.68
2022-12-27T17:08:44.479Z,6.61
2022-12-27T17:11:28.247Z,6.60
2022-12-27T17:13:58.321Z,6.58
2022-12-27T17:16:27.886Z,6.62
2022-12-27T17:19:01.286Z,6.63
2022-12-27T17:21:38.428Z,6.63
2022-12-27T17:24:07.875Z,6.65
2022-12-27T17:27:01.232Z,6.66
2022-12-27T17:29:46.347Z,6.71
2022-12-27T17:32:30.507Z,6.66
2022-12-27T17:35:28.676Z,6.65
2022-12-27T17:38:16.642Z,6.58
2022-12-27T17:40:46.091Z,6.65
2022-12-27T17:43:43.444Z,6.56
2022-12-27T17:46:31.371Z,6.51
2022-12-27T17:48:58.313Z,6.51
2022-12-27T17:51:27.522Z,6.57
2022-12-27T17:54:14.007Z,6.49
2022-12-27T17:57:03.468Z,6.47
2022-12-27T17:59:31.354Z,6.38
2022-12-27T18:02:09.057Z,6.41
2022-12-27T18:04:37.074Z,6.46
2022-12-27T18:07:05.872Z,6.39
2022-12-27T18:09:37.574Z,6.41
2022-12-27T18:12:19.106Z,6.45
2022-12-27T18:15:09.556Z,6.41
2022-12-27T18:17:38.725Z,6.32
2022-12-27T18:20:26.518Z,6.30
2022-12-27T18:23:17.065Z,6.24
2022-12-27T18:25:43.347Z,6.17
2022-12-27T18:28:23.830Z,6.03
2022-12-27T18:31:17.261Z,6.02
2022-12-27T18:33:54.793Z,5.92
2022-12-27T18:36:30.019Z,5.90
2022-12-27T18:39:01.877Z,5.89
2022-12-27T18:41:35.306Z,5.83
2022-12-27T18:44:01.910Z,5.73
2022-12-27T18:46:34.108Z,5.73
2022-12-27T18:49:00.423Z,5.74
2022-12-27T18:51:32.162Z,5.75
2022-12-27T18:53:59.001Z,5.66
2022-12-27T18:56:32.298Z,5.60
2022-12-27T18:59:00.265Z,5.65
2022-12-27T19:01:36.951Z,5.56
2022-12-27T19:04:18.648Z,5.57
2022-12-27T19:06:55.462Z,5.55
2022-12-27T19:09:24.964Z,5.52
2022-12-27T19:11:59.705Z,5.55
2022-12-27T19:14:30.004Z,5.51
2022-12-27T19:16:57.896Z,5.55
2022-12-27T19:19:31.303Z,5.40
2022-12-27T19:21:58.117Z,5.45
2022-12-27T19:24:27.148Z,5.46
2022-12-27T19:26:54.679Z,5.46
2022-12-27T19:29:29.769Z,5.36
2022-12-27T19:32:02.347Z,5.34
2022-12-27T19:34:31.598Z,5.30
2022-12-27T19:36:58.065Z,5.24
2022-12-27T19:39:28.836Z,5.24
2022-12-27T19:42:00.981Z,5.20
2022-12-27T19:44:28.398Z,5.22
2022-12-27T19:46:54.798Z,5.22
2022-12-27T19:49:41.545Z,5.16
2022-12-27T19:52:15.982Z,5.07
2022-12-27T19:54:42.529Z,5.15
2022-12-27T19:57:12.104Z,5.14
2022-12-27T19:59:38.760Z,5.09
2022-12-27T20:02:05.355Z,5.07
2022-12-27T20:04:31.894Z,5.18
2022-12-27T20:06:59.789Z,5.14
2022-12-27T20:09:26.210Z,5.08
2022-12-27T20:11:53.058Z,5.12
2022-12-27T20:14:19.650Z,5.09
2022-12-27T20:16:46.974Z,5.09
2022-12-27T20:19:16.147Z,5.08
2022-12-27T20:21:42.546Z,5.12
2022-12-27T20:24:10.953Z,5.09
2022-12-27T20:26:37.570Z,5.06
2022-12-27T20:29:04.041Z,5.04
2022-12-27T20:31:30.641Z,5.01
2022-12-27T20:33:57.091Z,5.05
2022-12-27T20:36:24.059Z,5.06
2022-12-27T20:38:50.588Z,5.07
2022-12-27T20:41:19.301Z,5.01
2022-12-27T20:43:45.920Z,5.09
2022-12-27T20:46:14.688Z,5.04
2022-12-27T20:48:42.179Z,5.06
2022-12-27T20:51:10.773Z,5.03
2022-12-27T20:53:37.256Z,5.08
2022-12-27T20:56:04.974Z,4.98
2022-12-27T20:58:32.162Z,4.94
2022-12-27T21:01:04.930Z,4.94
2022-12-27T21:03:31.383Z,4.90
2022-12-27T21:05:57.850Z,4.95
2022-12-27T21:08:24.209Z,4.96
2022-12-27T21:10:50.600Z,4.90
2022-12-27T21:13:17.042Z,4.92
2022-12-27T21:15:46.014Z,4.90
2022-12-27T21:18:12.370Z,4.95
2022-12-27T21:20:38.898Z,4.89
2022-12-27T21:23:05.277Z,4.87
2022-12-27T21:25:32.499Z,4.94
2022-12-27T21:27:58.888Z,5.02
2022-12-27T21:30:25.289Z,4.93
2022-12-27T21:32:51.640Z,4.94
2022-12-27T21:35:18.026Z,4.97
2022-12-27T21:37:44.397Z,5.08
2022-12-27T21:40:11.420Z,5.01
2022-12-27T21:42:37.777Z,5.07
2022-12-27T21:45:04.550Z,5.15
2022-12-27T21:47:31.555Z,5.06
2022-12-27T21:49:57.927Z,5.05
2022-12-27T21:52:24.335Z,5.03
2022-12-27T21:54:50.754Z,5.01
2022-12-27T21:57:17.139Z,5.14
2022-12-27T21:59:43.500Z,5.11
2022-12-27T22:02:10.070Z,5.16
2022-12-27T22:04:36.513Z,5.05
2022-12-27T22:07:02.948Z,5.13
2022-12-27T22:09:29.330Z,5.20
2022-12-27T22:11:55.705Z,5.25
2022-12-27T22:14:25.657Z,5.31
2022-12-27T22:16:52.802Z,5.25
2022-12-27T22:19:19.222Z,5.19
2022-12-27T22:21:45.620Z,5.24
2022-12-27T22:24:17.059Z,5.25
2022-12-27T22:26:43.445Z,5.21
2022-12-27T22:29:11.885Z,5.25
2022-12-27T22:31:39.251Z,5.28
2022-12-27T22:34:06.385Z,5.38
2022-12-27T22:36:33.549Z,5.32
2022-12-27T22:39:01.328Z,5.21
2022-12-27T22:41:35.816Z,5.25
2022-12-27T22:44:04.829Z,5.21
2022-12-27T22:46:58.565Z,5.23
2022-12-27T22:49:18.906Z,5.20
2022-12-27T22:51:45.616Z,5.21
2022-12-27T22:54:12.043Z,5.19
2022-12-27T22:56:40.695Z,5.23
2022-12-27T22:59:14.794Z,5.25
2022-12-27T23:01:42.172Z,5.21
2022-12-27T23:04:11.215Z,5.21
2022-12-27T23:06:37.686Z,5.24
2022-12-27T23:09:05.210Z,5.20
2022-12-27T23:11:35.564Z,5.23
2022-12-27T23:14:09.604Z,5.23
2022-12-27T23:16:47.044Z,5.36
2022-12-27T23:19:15.714Z,5.29
2022-12-27T23:21:42.564Z,5.36
2022-12-27T23:24:09.496Z,5.29
2022-12-27T23:26:35.930Z,5.30
2022-12-27T23:29:03.027Z,5.33
2022-12-27T23:31:29.981Z,5.30
2022-12-27T23:33:56.391Z,5.37
2022-12-27T23:36:23.106Z,5.37
2022-12-27T23:38:50.051Z,5.36
2022-12-27T23:41:19.535Z,5.45
2022-12-27T23:43:55.242Z,5.35
2022-12-27T23:46:30.229Z,5.41
2022-12-27T23:48:58.044Z,5.42
2022-12-27T23:51:25.042Z,5.40
2022-12-27T23:53:51.596Z,5.47
2022-12-27T23:56:23.002Z,5.46
2022-12-27T23:58:51.560Z,5.43
